Time;durP1;ratioP1;P1;durP2;ratioP2;P2;SDS_P1;SDS_P2;PMS_P1;PMS_P2;Temp;Humidity;BMP_temperature;BMP_pressure;BME280_temperature;BME280_humidity;BME280_pressure;Samples;Min_cycle;Max_cycle;Signal;HPM_P1;HPM_P2
2022/01/02 00:00:33;;;;;;;6.18;2.10;;;11.30;99.90;;;;;;4967388;28;20085;-85
2022/01/02 00:03:01;;;;;;;3.80;1.95;;;11.30;99.90;;;;;;4951938;28;20364;-85
2022/01/02 00:05:27;;;;;;;5.85;1.90;;;11.30;99.90;;;;;;4949879;28;20027;-84
2022/01/02 00:08:05;;;;;;;5.65;2.10;;;11.30;99.90;;;;;;4951711;28;20089;-84
2022/01/02 00:10:51;;;;;;;6.13;2.30;;;11.40;99.90;;;;;;4966435;28;20039;-85
2022/01/02 00:13:24;;;;;;;3.00;2.35;;;11.40;99.90;;;;;;4968423;28;20038;-85
2022/01/02 00:15:51;;;;;;;5.38;2.33;;;11.30;99.90;;;;;;4967320;28;20030;-84
2022/01/02 00:18:17;;;;;;;3.42;2.13;;;11.30;99.90;;;;;;4964947;28;20042;-85
2022/01/02 00:20:48;;;;;;;4.85;2.00;;;11.30;99.90;;;;;;4950386;28;20038;-84
2022/01/02 00:23:23;;;;;;;4.40;2.10;;;11.30;99.90;;;;;;4943759;28;20054;-84
2022/01/02 00:25:52;;;;;;;2.27;1.73;;;11.30;99.90;;;;;;4952608;28;20402;-84
2022/01/02 00:28:18;;;;;;;3.38;2.40;;;11.30;99.90;;;;;;4948725;28;20040;-85
2022/01/02 00:30:44;;;;;;;3.17;2.30;;;11.30;99.90;;;;;;4968212;28;20038;-84
2022/01/02 00:33:10;;;;;;;5.72;3.90;;;11.30;99.90;;;;;;4951856;28;20559;-85
2022/01/02 00:35:36;;;;;;;3.22;1.60;;;11.30;99.90;;;;;;4980584;28;20042;-85
2022/01/02 00:38:02;;;;;;;3.58;2.00;;;11.20;99.90;;;;;;4950927;28;20563;-84
2022/01/02 00:40:27;;;;;;;3.08;1.90;;;11.20;99.90;;;;;;4942952;28;20066;-85
2022/01/02 00:42:55;;;;;;;3.28;2.10;;;11.20;99.90;;;;;;4946674;28;20039;-85
2022/01/02 00:45:25;;;;;;;4.18;2.05;;;11.30;99.90;;;;;;4961430;28;20027;-85
2022/01/02 00:47:54;;;;;;;6.57;2.15;;;11.40;99.90;;;;;;4944642;28;20030;-84
2022/01/02 00:50:36;;;;;;;4.60;2.10;;;11.30;99.90;;;;;;4979022;28;20035;-84
2022/01/02 00:53:02;;;;;;;3.80;1.88;;;11.30;99.90;;;;;;4947057;28;20105;-84
2022/01/02 00:55:30;;;;;;;5.07;1.60;;;11.30;99.90;;;;;;4960372;28;20121;-84
2022/01/02 00:58:03;;;;;;;3.70;2.00;;;11.30;99.90;;;;;;4951098;28;20026;-84
2022/01/02 01:00:29;;;;;;;3.25;1.98;;;11.30;99.90;;;;;;4962503;28;20042;-84
2022/01/02 01:02:56;;;;;;;3.08;1.42;;;11.30;99.90;;;;;;4949189;28;20027;-84
2022/01/02 01:05:29;;;;;;;5.20;2.13;;;11.30;99.90;;;;;;4948455;28;20149;-84
2022/01/02 01:07:57;;;;;;;3.70;2.10;;;11.40;99.90;;;;;;4945667;28;20041;-84
2022/01/02 01:10:29;;;;;;;2.38;1.75;;;11.40;99.90;;;;;;4963457;28;20069;-84
2022/01/02 01:12:57;;;;;;;4.15;1.95;;;11.40;99.90;;;;;;4951401;28;20037;-84
2022/01/02 01:15:23;;;;;;;5.25;2.20;;;11.40;99.90;;;;;;4967277;28;20061;-84
2022/01/02 01:17:52;;;;;;;2.15;1.60;;;11.40;99.90;;;;;;4965585;28;20114;-84
2022/01/02 01:20:17;;;;;;;3.05;2.00;;;11.40;99.90;;;;;;4954457;28;20045;-85
2022/01/02 01:22:44;;;;;;;5.00;2.13;;;11.40;99.90;;;;;;4948211;28;20034;-84
2022/01/02 01:25:13;;;;;;;2.63;1.80;;;11.50;99.90;;;;;;4968152;28;20034;-85
2022/01/02 01:27:39;;;;;;;6.47;2.20;;;11.50;99.90;;;;;;4963614;28;20057;-84
2022/01/02 01:30:06;;;;;;;6.63;2.35;;;11.50;99.90;;;;;;4950045;28;20137;-84
2022/01/02 01:32:31;;;;;;;2.65;1.63;;;11.50;99.90;;;;;;4982906;28;20041;-84
2022/01/02 01:34:57;;;;;;;3.35;1.63;;;11.50;99.90;;;;;;4949747;28;20026;-84
2022/01/02 01:37:22;;;;;;;3.15;1.85;;;11.50;99.90;;;;;;4951691;28;20031;-84
2022/01/02 01:39:48;;;;;;;3.65;1.70;;;11.60;99.90;;;;;;4954376;28;20634;-84
2022/01/02 01:42:13;;;;;;;4.75;1.90;;;11.60;99.90;;;;;;4950397;28;20040;-84
2022/01/02 01:47:25;;;;;;;4.03;2.30;;;11.60;99.90;;;;;;4970888;28;20031;-84
2022/01/02 01:49:50;;;;;;;2.58;0.75;;;11.60;99.90;;;;;;4950321;28;20090;-84
2022/01/02 01:52:16;;;;;;;3.65;2.28;;;11.80;99.90;;;;;;4964305;28;20053;-85
2022/01/02 01:54:41;;;;;;;1.55;1.13;;;11.70;99.90;;;;;;4965957;28;20405;-84
2022/01/02 01:57:07;;;;;;;5.53;1.80;;;11.70;99.90;;;;;;4968976;28;20030;-84
2022/01/02 01:59:32;;;;;;;3.97;1.60;;;11.70;99.90;;;;;;4961905;28;20066;-84
2022/01/02 02:01:58;;;;;;;4.22;1.75;;;11.80;99.90;;;;;;4947405;28;20027;-84
2022/01/02 02:04:23;;;;;;;3.58;1.70;;;11.80;99.90;;;;;;4950373;28;20085;-83
2022/01/02 02:06:52;;;;;;;3.03;0.85;;;11.80;99.90;;;;;;4950178;28;20026;-84
2022/01/02 02:09:18;;;;;;;4.13;1.10;;;11.80;99.90;;;;;;4966112;28;20038;-85
2022/01/02 02:11:43;;;;;;;3.53;1.17;;;11.80;99.90;;;;;;4960152;28;20135;-85
2022/01/02 02:14:09;;;;;;;4.25;1.40;;;11.80;99.90;;;;;;4952701;28;20027;-84
2022/01/02 02:16:35;;;;;;;7.65;1.70;;;11.80;99.90;;;;;;4967203;28;20025;-84
2022/01/02 02:19:01;;;;;;;1.60;1.05;;;11.90;99.90;;;;;;4966890;28;20034;-84
2022/01/02 02:21:37;;;;;;;1.33;0.88;;;11.90;99.90;;;;;;4954663;28;20126;-84
2022/01/02 02:24:04;;;;;;;4.20;1.38;;;11.90;99.90;;;;;;4953746;28;20066;-84
2022/01/02 02:26:31;;;;;;;4.57;2.03;;;11.80;99.90;;;;;;4943656;28;20415;-85
2022/01/02 02:28:57;;;;;;;4.82;1.98;;;11.80;99.90;;;;;;4954406;28;20038;-84
2022/01/02 02:31:22;;;;;;;3.38;2.13;;;11.70;99.90;;;;;;4963603;28;20030;-85
2022/01/02 02:33:48;;;;;;;5.75;2.05;;;11.80;99.90;;;;;;4947853;28;20094;-84
2022/01/02 02:36:13;;;;;;;5.22;2.13;;;11.80;99.90;;;;;;4964896;28;22333;-84
2022/01/02 02:38:40;;;;;;;5.28;1.73;;;11.70;99.90;;;;;;4970483;28;20475;-84
2022/01/02 02:41:06;;;;;;;4.53;1.83;;;11.80;99.90;;;;;;4961187;28;20061;-84
2022/01/02 02:43:38;;;;;;;4.95;2.63;;;11.70;99.90;;;;;;4967017;28;20495;-84
2022/01/02 02:49:00;;;;;;;7.82;1.85;;;11.90;99.90;;;;;;4983777;28;20509;-84
2022/01/02 02:52:03;;;;;;;4.35;1.92;;;11.90;99.90;;;;;;4952174;28;20941;-84
2022/01/02 02:54:26;;;;;;;6.43;1.63;;;11.90;99.90;;;;;;4965892;28;20039;-84
2022/01/02 02:59:20;;;;;;;11.30;1.77;;;12.00;99.90;;;;;;4976307;28;20443;-84
2022/01/02 03:01:46;;;;;;;9.10;2.17;;;11.90;99.90;;;;;;4952075;28;20088;-84
2022/01/02 03:04:11;;;;;;;8.75;2.17;;;11.90;99.90;;;;;;4948443;28;20030;-85
2022/01/02 03:06:37;;;;;;;6.22;2.10;;;11.90;99.90;;;;;;4951036;28;20117;-83
2022/01/02 03:09:08;;;;;;;8.13;2.35;;;12.00;99.90;;;;;;4962307;28;20054;-84
2022/01/02 03:11:35;;;;;;;5.15;2.00;;;11.90;99.90;;;;;;4969398;28;20037;-83
2022/01/02 03:14:01;;;;;;;8.77;2.38;;;11.90;99.90;;;;;;4947190;28;20022;-84
2022/01/02 03:16:27;;;;;;;5.57;1.77;;;11.80;99.90;;;;;;4966315;28;20110;-83
2022/01/02 03:18:54;;;;;;;7.38;2.05;;;11.80;99.90;;;;;;4952095;28;20054;-83
2022/01/02 03:21:20;;;;;;;6.80;2.30;;;11.80;99.90;;;;;;4947036;28;20035;-84
2022/01/02 03:23:45;;;;;;;5.40;2.15;;;11.90;99.90;;;;;;4952032;28;20047;-83
2022/01/02 03:26:11;;;;;;;7.10;2.25;;;11.80;99.90;;;;;;4947878;28;20122;-83
2022/01/02 03:28:36;;;;;;;6.68;2.42;;;11.80;99.90;;;;;;4977371;28;20121;-83
2022/01/02 03:31:02;;;;;;;8.45;3.72;;;11.80;99.90;;;;;;4961482;28;20038;-83
2022/01/02 03:33:27;;;;;;;6.55;2.65;;;11.80;99.90;;;;;;4950835;28;20082;-83
2022/01/02 03:35:53;;;;;;;10.55;3.63;;;11.80;99.90;;;;;;4959983;28;20585;-83
2022/01/02 03:38:18;;;;;;;7.90;2.10;;;11.80;99.90;;;;;;4948784;28;20182;-83
2022/01/02 03:40:45;;;;;;;4.68;2.22;;;11.80;99.90;;;;;;4945175;28;20034;-83
2022/01/02 03:43:11;;;;;;;3.80;2.22;;;11.80;99.90;;;;;;4968288;28;20813;-83
2022/01/02 03:45:36;;;;;;;9.82;2.17;;;11.80;99.90;;;;;;4962990;28;20034;-83
2022/01/02 03:48:02;;;;;;;4.18;1.70;;;11.80;99.90;;;;;;4944298;28;20053;-83
2022/01/02 03:50:27;;;;;;;10.93;2.33;;;11.80;99.90;;;;;;4946119;28;20113;-84
2022/01/02 03:52:53;;;;;;;4.78;2.05;;;11.80;99.90;;;;;;4952095;28;20026;-83
2022/01/02 03:55:19;;;;;;;5.97;2.80;;;11.80;99.90;;;;;;4963867;28;20062;-83
2022/01/02 03:57:44;;;;;;;4.53;2.15;;;11.80;99.90;;;;;;4949493;28;20089;-83
2022/01/02 04:00:11;;;;;;;7.75;2.63;;;11.70;99.90;;;;;;4947810;28;20042;-84
2022/01/02 04:02:38;;;;;;;7.32;2.40;;;11.70;99.90;;;;;;4974230;28;20108;-84
2022/01/02 04:05:10;;;;;;;7.32;2.50;;;11.70;99.90;;;;;;4946123;28;20453;-83
2022/01/02 04:07:36;;;;;;;6.40;2.15;;;11.70;99.90;;;;;;4962906;28;20030;-84
2022/01/02 04:10:07;;;;;;;9.45;2.50;;;11.70;99.90;;;;;;4945688;28;20857;-84
2022/01/02 04:12:33;;;;;;;9.00;2.58;;;11.70;99.90;;;;;;4949292;28;20034;-84
2022/01/02 04:14:58;;;;;;;5.22;2.13;;;11.70;99.90;;;;;;4950744;28;20090;-84
2022/01/02 04:17:24;;;;;;;9.65;2.30;;;11.70;99.90;;;;;;4960862;28;20051;-84
2022/01/02 04:19:50;;;;;;;7.30;2.20;;;11.70;99.90;;;;;;4961791;28;20097;-84
2022/01/02 04:22:16;;;;;;;6.70;2.47;;;11.70;99.90;;;;;;4980225;28;20030;-84
2022/01/02 04:24:42;;;;;;;6.53;2.33;;;11.70;99.90;;;;;;4953803;28;20036;-84
2022/01/02 04:27:07;;;;;;;5.07;2.58;;;11.70;99.90;;;;;;4951970;28;20506;-84
2022/01/02 04:29:33;;;;;;;5.55;2.33;;;11.70;99.90;;;;;;4945281;28;20030;-84
2022/01/02 04:31:58;;;;;;;4.75;2.15;;;11.70;99.90;;;;;;4946085;28;20039;-84
2022/01/02 04:34:24;;;;;;;6.57;2.33;;;11.70;99.90;;;;;;4951852;28;20088;-85
2022/01/02 04:36:50;;;;;;;6.95;2.20;;;11.70;99.90;;;;;;4945696;28;20033;-84
2022/01/02 04:39:15;;;;;;;7.38;2.63;;;11.80;99.90;;;;;;4953545;28;20468;-84
2022/01/02 04:41:41;;;;;;;7.20;2.35;;;11.70;99.90;;;;;;4951090;28;20479;-84
2022/01/02 04:44:06;;;;;;;5.75;2.70;;;11.60;99.90;;;;;;4950511;28;20038;-84
2022/01/02 04:46:32;;;;;;;11.85;2.92;;;11.60;99.90;;;;;;4948711;28;20114;-84
2022/01/02 04:48:57;;;;;;;8.65;2.47;;;11.60;99.90;;;;;;4960727;28;20038;-84
2022/01/02 04:51:23;;;;;;;7.28;2.70;;;11.60;99.90;;;;;;4955586;28;20027;-84
2022/01/02 04:53:49;;;;;;;13.95;2.53;;;11.60;99.90;;;;;;4944019;28;20034;-84
2022/01/02 04:56:15;;;;;;;10.15;2.88;;;11.50;99.90;;;;;;4943479;28;20045;-84
2022/01/02 04:58:41;;;;;;;8.52;2.25;;;11.60;99.90;;;;;;4963434;28;20475;-84
2022/01/02 05:01:14;;;;;;;9.65;2.40;;;11.60;99.90;;;;;;4976607;28;20053;-84
2022/01/02 05:03:42;;;;;;;6.05;2.45;;;11.50;99.90;;;;;;4964533;28;20031;-84
2022/01/02 05:06:08;;;;;;;8.25;2.40;;;11.50;99.90;;;;;;4963300;28;20051;-84
2022/01/02 05:08:34;;;;;;;9.85;2.50;;;11.50;99.90;;;;;;4963577;28;20050;-84
2022/01/02 05:11:00;;;;;;;13.55;3.60;;;11.50;99.90;;;;;;4956883;28;20465;-84
2022/01/02 05:13:25;;;;;;;3.90;2.33;;;11.50;99.90;;;;;;4963754;28;20030;-84
2022/01/02 05:15:51;;;;;;;7.45;2.70;;;11.50;99.90;;;;;;4960576;28;20026;-84
2022/01/02 05:18:16;;;;;;;4.00;2.63;;;11.50;99.90;;;;;;4945759;28;20089;-84
2022/01/02 05:20:46;;;;;;;9.38;3.00;;;11.50;99.90;;;;;;4951702;28;20639;-85
2022/01/02 05:23:14;;;;;;;17.25;3.95;;;11.40;99.90;;;;;;4977835;28;20041;-84
2022/01/02 05:25:40;;;;;;;12.93;3.05;;;11.50;99.90;;;;;;4948120;28;20118;-85
2022/01/02 05:28:05;;;;;;;8.27;3.28;;;11.50;99.90;;;;;;4962114;28;20095;-85
2022/01/02 05:30:31;;;;;;;10.05;2.53;;;11.40;99.90;;;;;;4945613;28;20510;-85
2022/01/02 05:32:56;;;;;;;6.25;2.78;;;11.40;99.90;;;;;;4962569;28;20027;-85
2022/01/02 05:35:22;;;;;;;12.05;3.17;;;11.40;99.90;;;;;;4952773;28;20035;-85
2022/01/02 05:37:48;;;;;;;10.82;3.00;;;11.40;99.90;;;;;;4958173;28;20114;-85
2022/01/02 05:40:13;;;;;;;10.52;3.30;;;11.50;99.90;;;;;;4960086;28;20030;-85
2022/01/02 05:42:39;;;;;;;9.57;2.72;;;11.40;99.90;;;;;;4951459;28;20040;-85
2022/01/02 05:45:05;;;;;;;15.10;3.25;;;11.40;99.90;;;;;;4951375;28;20043;-85
2022/01/02 05:47:30;;;;;;;12.48;3.30;;;11.40;99.90;;;;;;4950448;28;20034;-85
2022/01/02 05:49:56;;;;;;;8.00;3.00;;;11.30;99.90;;;;;;4949012;28;20023;-85
2022/01/02 05:52:21;;;;;;;12.05;3.60;;;11.30;99.90;;;;;;4962482;28;20191;-85
2022/01/02 05:54:47;;;;;;;12.38;3.03;;;11.30;99.90;;;;;;4960524;28;20114;-85
2022/01/02 05:57:13;;;;;;;11.23;4.40;;;11.40;99.90;;;;;;4948824;28;20093;-85
2022/01/02 05:59:39;;;;;;;9.73;3.55;;;11.30;99.90;;;;;;4950267;28;20066;-86
2022/01/02 06:02:05;;;;;;;8.52;3.03;;;11.40;99.90;;;;;;4952133;28;20042;-85
2022/01/02 06:04:31;;;;;;;8.75;3.42;;;11.30;99.90;;;;;;4968024;28;20027;-86
2022/01/02 06:06:56;;;;;;;14.95;3.17;;;11.30;99.90;;;;;;4954445;28;20499;-85
2022/01/02 06:09:22;;;;;;;7.18;3.10;;;11.30;99.90;;;;;;4967166;28;20104;-85
2022/01/02 06:11:47;;;;;;;6.55;3.25;;;11.30;99.90;;;;;;4948576;28;20038;-85
2022/01/02 06:14:13;;;;;;;10.27;3.22;;;11.30;99.90;;;;;;4961738;28;20410;-85
2022/01/02 06:16:38;;;;;;;10.13;3.17;;;11.20;99.90;;;;;;4950757;28;20035;-85
2022/01/02 06:19:04;;;;;;;9.73;4.85;;;11.20;99.90;;;;;;4949424;28;20033;-85
2022/01/02 06:21:29;;;;;;;7.65;3.00;;;11.20;99.90;;;;;;4969338;28;20038;-86
2022/01/02 06:23:55;;;;;;;6.85;3.05;;;11.20;99.90;;;;;;4952592;28;20093;-85
2022/01/02 06:26:20;;;;;;;11.80;3.90;;;11.20;99.90;;;;;;4965462;28;20121;-85
2022/01/02 06:28:46;;;;;;;10.43;2.60;;;11.20;99.90;;;;;;4963061;28;20031;-85
2022/01/02 06:31:11;;;;;;;8.25;3.67;;;11.20;99.90;;;;;;4952223;28;20487;-86
2022/01/02 06:33:37;;;;;;;8.15;3.17;;;11.30;99.90;;;;;;4979187;28;20038;-85
2022/01/02 06:36:03;;;;;;;6.75;3.22;;;11.20;99.90;;;;;;4952692;28;20027;-85
2022/01/02 06:38:28;;;;;;;7.55;3.22;;;11.20;99.90;;;;;;4965754;28;20050;-85
2022/01/02 06:40:54;;;;;;;7.47;2.88;;;11.10;99.90;;;;;;4946602;28;20046;-85
2022/01/02 06:43:20;;;;;;;9.43;3.67;;;11.10;99.90;;;;;;4944915;28;20470;-85
2022/01/02 06:45:46;;;;;;;7.18;3.00;;;11.10;99.90;;;;;;4953400;28;20036;-85
2022/01/02 06:48:12;;;;;;;10.25;2.95;;;11.10;99.90;;;;;;4962251;28;20053;-85
2022/01/02 06:50:39;;;;;;;8.43;3.10;;;11.00;99.90;;;;;;4950655;28;20040;-85
2022/01/02 06:53:04;;;;;;;8.05;3.45;;;11.10;99.90;;;;;;4979135;28;20053;-85
2022/01/02 06:55:30;;;;;;;7.18;3.10;;;11.10;99.90;;;;;;4943708;28;20415;-85
2022/01/02 06:57:56;;;;;;;5.45;3.17;;;11.00;99.90;;;;;;4953354;28;20034;-85
2022/01/02 07:00:21;;;;;;;9.05;2.88;;;11.10;99.90;;;;;;4964090;28;20042;-85
2022/01/02 07:02:47;;;;;;;8.95;2.92;;;11.10;99.90;;;;;;4959361;28;20041;-85
2022/01/02 07:05:13;;;;;;;6.88;3.40;;;11.10;99.90;;;;;;4963315;28;20130;-85
2022/01/02 07:07:45;;;;;;;6.45;3.35;;;11.10;99.90;;;;;;4967851;28;20030;-85
2022/01/02 07:10:11;;;;;;;6.32;3.30;;;11.10;99.90;;;;;;4961800;28;20038;-85
2022/01/02 07:12:37;;;;;;;11.68;3.33;;;11.00;99.90;;;;;;4950142;28;20034;-85
2022/01/02 07:15:04;;;;;;;8.05;3.45;;;11.00;99.90;;;;;;4950709;28;20501;-85
2022/01/02 07:17:30;;;;;;;12.23;3.95;;;11.00;99.90;;;;;;4965232;28;20043;-85
2022/01/02 07:19:55;;;;;;;10.82;3.40;;;10.90;99.90;;;;;;4947402;28;20089;-85
2022/01/02 07:22:21;;;;;;;7.15;3.72;;;11.00;99.90;;;;;;4950677;28;20070;-85
2022/01/02 07:24:51;;;;;;;10.05;4.20;;;11.00;99.90;;;;;;4974958;28;20034;-85
2022/01/02 07:27:19;;;;;;;7.38;3.28;;;10.90;99.90;;;;;;4950247;28;20061;-85
2022/01/02 07:29:46;;;;;;;13.32;3.80;;;10.90;99.90;;;;;;4952207;28;20050;-85
2022/01/02 07:32:12;;;;;;;11.77;3.67;;;10.90;99.90;;;;;;4960182;28;20034;-85
2022/01/02 07:34:38;;;;;;;8.57;3.75;;;10.90;99.90;;;;;;4953507;28;20395;-85
2022/01/02 07:37:05;;;;;;;6.82;3.00;;;10.90;99.90;;;;;;4947653;28;20033;-85
2022/01/02 07:39:31;;;;;;;12.43;3.17;;;10.90;99.90;;;;;;4948201;28;20117;-85
2022/01/02 07:41:57;;;;;;;7.68;3.03;;;10.90;99.90;;;;;;4946030;28;20122;-85
2022/01/02 07:44:22;;;;;;;6.68;3.28;;;10.90;99.90;;;;;;4924221;28;20038;-85
2022/01/02 07:46:48;;;;;;;10.23;3.25;;;10.80;99.90;;;;;;4968924;28;20096;-85
2022/01/02 07:49:13;;;;;;;13.82;4.13;;;10.80;99.90;;;;;;4948479;28;20042;-85
2022/01/02 07:51:39;;;;;;;8.93;3.58;;;10.80;99.90;;;;;;4963818;28;20138;-85
2022/01/02 07:54:04;;;;;;;8.07;2.80;;;10.80;99.90;;;;;;4962314;28;20043;-85
2022/01/02 07:56:30;;;;;;;7.72;2.83;;;10.90;99.90;;;;;;4962307;28;20030;-85
2022/01/02 07:58:58;;;;;;;11.40;3.42;;;10.80;99.90;;;;;;4952596;28;20436;-85
2022/01/02 08:01:23;;;;;;;9.20;3.60;;;10.80;99.90;;;;;;4951123;28;20043;-85
2022/01/02 08:03:49;;;;;;;8.95;3.47;;;10.90;99.90;;;;;;4951202;28;20089;-85
2022/01/02 08:06:14;;;;;;;7.25;3.17;;;10.90;99.90;;;;;;4953032;28;20080;-84
2022/01/02 08:08:40;;;;;;;10.45;3.15;;;10.80;99.90;;;;;;4968646;28;20517;-84
2022/01/02 08:11:06;;;;;;;9.15;2.83;;;10.80;99.90;;;;;;4946564;28;20554;-84
2022/01/02 08:13:31;;;;;;;5.90;2.92;;;10.90;99.90;;;;;;4949847;28;20549;-85
2022/01/02 08:15:57;;;;;;;12.73;3.20;;;10.90;99.90;;;;;;4945497;28;20047;-85
2022/01/02 08:18:22;;;;;;;10.18;3.85;;;10.90;99.90;;;;;;4949089;28;20069;-85
2022/01/02 08:20:48;;;;;;;7.32;3.05;;;10.90;99.90;;;;;;4951955;28;20046;-89
2022/01/02 08:23:14;;;;;;;8.80;3.30;;;10.90;99.90;;;;;;4963007;28;20026;-88
2022/01/02 08:25:39;;;;;;;8.75;3.10;;;10.90;99.90;;;;;;4962190;28;20038;-88
2022/01/02 08:28:05;;;;;;;9.00;3.58;;;10.90;99.90;;;;;;4962297;28;20042;-87
2022/01/02 08:30:31;;;;;;;3.38;2.22;;;10.90;99.90;;;;;;4966297;28;20100;-88
2022/01/02 08:32:56;;;;;;;8.75;3.08;;;10.90;99.90;;;;;;4960169;28;20078;-89
2022/01/02 08:35:22;;;;;;;6.68;3.47;;;10.90;99.90;;;;;;4979418;28;20049;-88
2022/01/02 08:37:49;;;;;;;5.50;2.92;;;10.90;99.90;;;;;;4948176;28;20495;-87
2022/01/02 08:40:14;;;;;;;5.72;2.75;;;10.90;99.90;;;;;;4946373;28;20097;-88
2022/01/02 08:42:40;;;;;;;7.13;3.42;;;11.00;99.90;;;;;;4951086;28;20030;-88
2022/01/02 08:45:06;;;;;;;19.02;2.50;;;10.90;99.90;;;;;;4962313;28;20031;-88
2022/01/02 08:47:32;;;;;;;4.38;2.45;;;10.90;99.90;;;;;;4967602;28;20061;-88
2022/01/02 08:49:57;;;;;;;5.05;2.60;;;10.90;99.90;;;;;;4961220;28;20050;-88
2022/01/02 08:52:23;;;;;;;2.88;2.47;;;10.90;99.90;;;;;;4959124;28;20039;-87
2022/01/02 08:54:51;;;;;;;5.25;2.55;;;10.90;99.90;;;;;;4952561;28;20129;-87
2022/01/02 08:57:17;;;;;;;7.65;2.58;;;10.90;99.90;;;;;;4946342;28;20138;-88
2022/01/02 08:59:45;;;;;;;4.10;2.42;;;10.90;99.90;;;;;;4947511;28;20122;-87
2022/01/02 09:02:11;;;;;;;5.60;2.70;;;11.00;99.90;;;;;;4962464;28;20058;-88
2022/01/02 09:04:36;;;;;;;4.88;2.70;;;11.00;99.90;;;;;;4964801;28;20053;-88
2022/01/02 09:07:02;;;;;;;3.35;2.80;;;10.90;99.90;;;;;;4947851;28;20030;-87
2022/01/02 09:09:33;;;;;;;3.17;1.90;;;10.90;99.90;;;;;;4947909;28;20074;-88
2022/01/02 09:11:59;;;;;;;2.95;1.80;;;10.90;99.90;;;;;;4948375;28;20109;-88
2022/01/02 09:14:25;;;;;;;3.45;2.08;;;10.80;99.90;;;;;;4946625;28;20131;-87
2022/01/02 09:16:50;;;;;;;8.90;3.75;;;10.80;99.90;;;;;;4947334;28;20033;-88
2022/01/02 09:19:17;;;;;;;6.18;2.38;;;10.80;99.90;;;;;;4947679;28;20058;-88
2022/01/02 09:21:42;;;;;;;5.63;2.50;;;10.80;99.90;;;;;;4952630;28;20034;-88
2022/01/02 09:24:08;;;;;;;5.13;2.40;;;10.80;99.90;;;;;;4945456;28;20034;-86
2022/01/02 09:26:49;;;;;;;3.75;2.42;;;10.80;99.90;;;;;;4948173;28;20027;-86
2022/01/02 09:29:14;;;;;;;2.67;1.98;;;10.90;99.90;;;;;;4960613;28;20042;-85
2022/01/02 09:31:40;;;;;;;4.40;2.67;;;10.80;99.90;;;;;;4949667;28;20030;-85
2022/01/02 09:34:06;;;;;;;5.90;2.72;;;10.90;99.90;;;;;;4967422;28;20031;-85
2022/01/02 09:36:32;;;;;;;5.30;2.15;;;10.90;99.90;;;;;;4956575;28;20026;-85
2022/01/02 09:38:57;;;;;;;9.98;2.67;;;10.90;99.90;;;;;;4946651;28;20554;-85
2022/01/02 09:41:23;;;;;;;3.15;1.85;;;10.90;99.90;;;;;;4967606;28;20407;-85
2022/01/02 09:43:49;;;;;;;3.67;2.28;;;10.90;99.90;;;;;;4954879;28;20089;-85
2022/01/02 09:46:22;;;;;;;9.02;2.42;;;10.90;99.90;;;;;;4962463;28;20040;-85
2022/01/02 09:48:48;;;;;;;4.50;2.78;;;11.00;99.90;;;;;;4967695;28;20031;-85
2022/01/02 09:51:18;;;;;;;2.15;1.30;;;11.00;99.90;;;;;;4970001;28;20030;-85
2022/01/02 09:53:45;;;;;;;5.15;1.92;;;11.00;99.90;;;;;;4955341;28;20137;-86
2022/01/02 09:56:10;;;;;;;2.47;1.15;;;11.10;99.90;;;;;;4950652;28;20042;-85
2022/01/02 09:58:36;;;;;;;3.05;1.48;;;11.10;99.90;;;;;;4962462;28;20093;-85
2022/01/02 10:01:02;;;;;;;3.67;1.25;;;11.10;99.90;;;;;;4953900;28;20030;-85
2022/01/02 10:03:40;;;;;;;2.47;1.85;;;11.20;99.90;;;;;;4953231;28;20044;-85
2022/01/02 10:06:05;;;;;;;2.67;1.92;;;11.20;99.90;;;;;;4981417;28;20046;-87
2022/01/02 10:08:34;;;;;;;2.05;1.80;;;11.20;99.90;;;;;;4948622;28;20065;-89
2022/01/02 10:11:07;;;;;;;1.17;0.80;;;11.30;99.90;;;;;;4962777;28;20105;-88
2022/01/02 10:13:46;;;;;;;2.45;1.50;;;11.30;99.90;;;;;;4971828;28;20031;-87
2022/01/02 10:16:44;;;;;;;6.00;1.73;;;11.40;99.90;;;;;;4966330;28;20030;-88
2022/01/02 10:19:18;;;;;;;1.35;1.25;;;11.40;99.90;;;;;;4953342;28;20114;-87
2022/01/02 10:21:43;;;;;;;5.53;1.63;;;11.40;99.90;;;;;;4965030;28;20063;-87
2022/01/02 10:24:09;;;;;;;2.05;1.40;;;11.40;99.90;;;;;;4958484;28;20065;-87
2022/01/02 10:26:35;;;;;;;2.40;1.50;;;11.40;99.90;;;;;;4985905;28;20038;-88
2022/01/02 10:29:10;;;;;;;2.78;1.50;;;11.40;99.90;;;;;;4948069;28;20082;-88
2022/01/02 10:31:35;;;;;;;3.53;2.00;;;11.40;99.90;;;;;;4949430;28;20038;-89
2022/01/02 10:34:01;;;;;;;2.25;1.13;;;11.40;99.90;;;;;;4950206;28;20125;-88
2022/01/02 10:36:33;;;;;;;4.35;1.95;;;11.30;99.90;;;;;;4962487;28;20030;-87
2022/01/02 10:39:02;;;;;;;5.25;2.50;;;11.40;99.90;;;;;;4966886;28;20092;-89
2022/01/02 10:41:35;;;;;;;2.88;1.95;;;11.40;99.90;;;;;;4981615;28;20038;-87
2022/01/02 10:44:26;;;;;;;4.20;2.20;;;11.40;99.90;;;;;;4940878;28;20538;-87
2022/01/02 10:47:21;;;;;;;1.35;1.23;;;11.40;99.90;;;;;;4979355;28;20031;-87
2022/01/02 10:49:53;;;;;;;6.00;2.53;;;11.40;99.90;;;;;;4968442;28;20057;-87
2022/01/02 10:52:26;;;;;;;3.35;1.95;;;11.40;99.90;;;;;;4983485;28;20117;-87
2022/01/02 10:54:51;;;;;;;5.72;1.60;;;11.50;99.90;;;;;;4970220;28;20030;-88
2022/01/02 10:57:17;;;;;;;4.82;2.03;;;11.50;99.90;;;;;;4950583;28;20026;-87
2022/01/02 10:59:43;;;;;;;4.15;2.10;;;11.60;99.90;;;;;;4953100;28;20039;-87
2022/01/02 11:02:14;;;;;;;5.30;1.80;;;11.60;99.90;;;;;;4947527;28;20149;-87
2022/01/02 11:04:55;;;;;;;4.25;2.85;;;11.70;99.90;;;;;;4951438;28;20112;-86
2022/01/02 11:07:22;;;;;;;4.53;2.17;;;11.50;99.90;;;;;;4966646;28;20031;-87
2022/01/02 11:09:55;;;;;;;10.10;2.88;;;11.60;99.90;;;;;;4951342;28;20038;-86
2022/01/02 11:12:21;;;;;;;4.95;2.63;;;11.70;99.90;;;;;;4943759;28;20031;-87
2022/01/02 11:14:48;;;;;;;4.05;2.05;;;11.70;99.90;;;;;;4962832;28;20566;-87
2022/01/02 11:17:14;;;;;;;7.30;2.85;;;11.80;99.90;;;;;;4963674;28;20041;-87
2022/01/02 11:19:41;;;;;;;3.30;1.90;;;11.80;99.90;;;;;;4966774;28;20393;-87
2022/01/02 11:22:10;;;;;;;6.65;2.53;;;11.80;99.90;;;;;;4967408;28;20068;-87
2022/01/02 11:24:43;;;;;;;3.15;1.73;;;11.90;99.90;;;;;;4947223;28;20498;-87
2022/01/02 11:27:27;;;;;;;6.22;2.47;;;11.90;99.90;;;;;;4944675;28;20030;-87
2022/01/02 11:29:53;;;;;;;5.38;2.15;;;11.90;99.90;;;;;;4961265;28;20031;-87
2022/01/02 11:32:26;;;;;;;3.17;1.73;;;12.00;99.90;;;;;;4946065;28;20177;-87
2022/01/02 11:34:52;;;;;;;5.88;3.30;;;12.00;99.90;;;;;;4960311;28;20084;-87
2022/01/02 11:37:25;;;;;;;3.47;1.85;;;12.10;99.90;;;;;;4958616;28;20030;-87
2022/01/02 11:39:52;;;;;;;7.00;3.83;;;12.10;99.90;;;;;;4951599;28;20096;-87
2022/01/02 11:42:40;;;;;;;16.00;3.42;;;12.10;99.90;;;;;;4960087;28;20026;-87
2022/01/02 11:45:06;;;;;;;9.35;2.65;;;12.20;99.90;;;;;;4983200;28;20058;-87
2022/01/02 11:47:42;;;;;;;5.28;2.80;;;12.20;99.90;;;;;;4961613;28;20096;-87
2022/01/02 11:50:34;;;;;;;4.53;3.17;;;12.30;99.90;;;;;;4957895;28;20841;-88
2022/01/02 11:53:09;;;;;;;4.68;2.28;;;12.30;99.90;;;;;;4976352;28;20488;-88
2022/01/02 11:55:34;;;;;;;5.47;2.75;;;12.30;99.90;;;;;;4635959;28;9999773;-88
2022/01/02 11:58:00;;;;;;;3.45;2.30;;;12.30;99.90;;;;;;4948266;28;20049;-87
2022/01/02 12:00:33;;;;;;;4.78;2.10;;;12.30;99.90;;;;;;4960038;28;20030;-86
2022/01/02 12:02:58;;;;;;;7.53;3.53;;;12.40;99.90;;;;;;4945131;28;20034;-86
2022/01/02 12:05:24;;;;;;;6.10;2.42;;;12.50;99.90;;;;;;4961707;28;20403;-85
2022/01/02 12:07:55;;;;;;;4.75;2.80;;;12.40;99.90;;;;;;4962236;28;20487;-86
2022/01/02 12:10:35;;;;;;;6.25;2.47;;;12.50;99.90;;;;;;4961403;28;20466;-86
2022/01/02 12:13:10;;;;;;;6.18;3.05;;;12.50;99.90;;;;;;4950019;28;20030;-87
2022/01/02 12:15:39;;;;;;;4.32;2.30;;;12.50;99.90;;;;;;4974318;28;20054;-87
2022/01/02 12:18:19;;;;;;;5.63;3.35;;;12.50;99.90;;;;;;4982262;28;20065;-87
2022/01/02 12:20:57;;;;;;;4.82;2.63;;;12.50;99.90;;;;;;4979197;28;20112;-87
2022/01/02 12:23:34;;;;;;;3.03;1.85;;;12.50;99.90;;;;;;4968302;28;20041;-87
2022/01/02 12:26:03;;;;;;;5.20;2.53;;;12.50;99.90;;;;;;4964739;28;20183;-87
2022/01/02 12:28:56;;;;;;;8.63;2.50;;;12.60;99.90;;;;;;4953366;28;20061;-87
2022/01/02 12:31:22;;;;;;;6.47;2.22;;;12.50;99.90;;;;;;4956684;28;20499;-86
2022/01/02 12:33:47;;;;;;;7.15;2.97;;;12.50;99.90;;;;;;4948437;28;20078;-87
2022/01/02 12:36:15;;;;;;;3.95;2.28;;;12.50;99.90;;;;;;4939575;28;20487;-86
2022/01/02 12:38:54;;;;;;;2.17;1.55;;;12.50;99.90;;;;;;4931943;28;20122;-86
2022/01/02 12:41:26;;;;;;;7.00;2.53;;;12.50;99.90;;;;;;4951262;28;20034;-86
2022/01/02 12:43:55;;;;;;;7.85;2.83;;;12.40;99.90;;;;;;4935012;28;20045;-86
2022/01/02 12:46:51;;;;;;;10.77;2.65;;;12.50;99.90;;;;;;4961780;28;20026;-85
2022/01/02 12:49:20;;;;;;;3.47;1.90;;;12.40;99.90;;;;;;4985415;28;20027;-86
2022/01/02 12:51:58;;;;;;;4.25;1.90;;;12.40;99.90;;;;;;4982039;28;20034;-87
2022/01/02 12:54:27;;;;;;;6.97;2.42;;;12.40;99.90;;;;;;4942258;28;20039;-87
2022/01/02 12:56:54;;;;;;;2.88;1.75;;;12.40;99.90;;;;;;4945716;28;20050;-87